createdAt,value
2023-04-16T00:00:55.039Z,19.28
2023-04-16T00:03:22.864Z,19.07
2023-04-16T00:05:55.769Z,18.88
2023-04-16T00:08:24.595Z,18.51
2023-04-16T00:10:52.312Z,18.81
2023-04-16T00:13:19.883Z,18.08
2023-04-16T00:15:47.485Z,18.95
2023-04-16T00:18:15.086Z,19.02
2023-04-16T00:20:42.792Z,19.36
2023-04-16T00:23:11.748Z,19.70
2023-04-16T00:25:39.385Z,19.09
2023-04-16T00:28:07.568Z,19.00
2023-04-16T00:30:36.206Z,19.29
2023-04-16T00:33:04.714Z,18.74
2023-04-16T00:35:32.419Z,18.76
2023-04-16T00:38:00.531Z,18.58
2023-04-16T00:40:29.806Z,18.51
2023-04-16T00:42:57.530Z,18.45
2023-04-16T00:45:25.171Z,18.15
2023-04-16T00:47:52.896Z,19.13
2023-04-16T00:50:20.805Z,18.94
2023-04-16T00:52:48.535Z,18.27
2023-04-16T00:55:17.642Z,19.16
2023-04-16T00:57:46.757Z,20.16
2023-04-16T01:00:14.728Z,19.33
2023-04-16T01:02:42.671Z,19.65
2023-04-16T01:05:10.442Z,19.30
2023-04-16T01:07:38.222Z,19.65
2023-04-16T01:10:06.028Z,19.34
2023-04-16T01:12:33.670Z,19.45
2023-04-16T01:15:02.616Z,20.05
2023-04-16T01:17:30.297Z,20.51
2023-04-16T01:19:59.258Z,19.76
2023-04-16T01:22:28.319Z,20.71
2023-04-16T01:24:56.037Z,20.20
2023-04-16T01:27:26.995Z,19.12
2023-04-16T01:29:56.254Z,20.67
2023-04-16T01:32:33.233Z,20.59
2023-04-16T01:35:00.890Z,19.41
2023-04-16T01:37:29.881Z,19.94
2023-04-16T01:39:57.619Z,20.62
2023-04-16T01:42:25.373Z,20.34
2023-04-16T01:44:53.122Z,20.18
2023-04-16T01:47:20.919Z,20.68
2023-04-16T01:49:48.532Z,20.72
2023-04-16T01:52:16.149Z,21.28
2023-04-16T01:54:45.164Z,19.75
2023-04-16T01:57:12.923Z,20.59
2023-04-16T01:59:40.619Z,19.30
2023-04-16T02:02:11.080Z,20.07
2023-04-16T02:04:39.606Z,18.88
2023-04-16T02:07:08.944Z,20.74
2023-04-16T02:09:36.849Z,20.43
2023-04-16T02:12:09.560Z,19.80
2023-04-16T02:14:37.189Z,20.91
2023-04-16T02:17:06.031Z,19.05
2023-04-16T02:19:39.822Z,19.24
2023-04-16T02:22:09.316Z,19.80
2023-04-16T02:24:37.054Z,18.76
2023-04-16T02:27:10.694Z,18.00
2023-04-16T02:29:38.541Z,18.95
2023-04-16T02:32:13.242Z,18.92
2023-04-16T02:34:44.918Z,18.17
2023-04-16T02:37:15.386Z,19.11
2023-04-16T02:39:44.093Z,18.47
2023-04-16T02:42:13.248Z,18.98
2023-04-16T02:44:40.928Z,18.19
2023-04-16T02:47:08.554Z,19.13
2023-04-16T02:49:36.745Z,18.43
2023-04-16T02:52:04.391Z,18.99
2023-04-16T02:54:32.072Z,20.00
2023-04-16T02:56:59.772Z,19.94
2023-04-16T02:59:28.834Z,19.38
2023-04-16T03:01:56.660Z,19.40
2023-04-16T03:04:24.405Z,18.85
2023-04-16T03:06:52.091Z,20.17
2023-04-16T03:09:19.709Z,19.19
2023-04-16T03:11:47.407Z,19.64
2023-04-16T03:14:15.006Z,19.74
2023-04-16T03:16:43.995Z,19.90
2023-04-16T03:19:11.816Z,19.83
2023-04-16T03:21:39.629Z,18.62
2023-04-16T03:24:07.271Z,19.10
2023-04-16T03:26:34.940Z,20.06
2023-04-16T03:29:03.012Z,20.38
2023-04-16T03:31:32.516Z,19.37
2023-04-16T03:34:02.241Z,18.84
2023-04-16T03:36:32.550Z,18.73
2023-04-16T03:39:00.289Z,18.96
2023-04-16T03:41:29.553Z,19.02
2023-04-16T03:43:57.369Z,18.45
2023-04-16T03:46:25.033Z,18.24
2023-04-16T03:48:53.284Z,19.23
2023-04-16T03:51:22.297Z,18.00
2023-04-16T03:53:49.903Z,19.18
2023-04-16T03:56:18.782Z,19.12
2023-04-16T03:58:46.458Z,16.35
2023-04-16T04:01:14.152Z,18.15
2023-04-16T04:03:42.400Z,17.70
2023-04-16T04:06:11.046Z,16.87
2023-04-16T04:08:40.023Z,18.03
2023-04-16T04:11:08.262Z,17.99
2023-04-16T04:13:36.714Z,16.56
2023-04-16T04:16:05.083Z,18.34
2023-04-16T04:18:33.251Z,18.88
2023-04-16T04:21:01.151Z,17.58
2023-04-16T04:23:31.933Z,17.43
2023-04-16T04:26:03.635Z,18.07
2023-04-16T04:28:31.435Z,18.38
2023-04-16T04:30:59.828Z,20.07
2023-04-16T04:33:27.489Z,17.48
2023-04-16T04:35:55.759Z,18.50
2023-04-16T04:38:25.190Z,18.54
2023-04-16T04:40:53.473Z,18.92
2023-04-16T04:43:24.157Z,19.13
2023-04-16T04:45:51.978Z,19.46
2023-04-16T04:48:19.707Z,18.13
2023-04-16T04:50:47.678Z,18.82
2023-04-16T04:53:15.356Z,18.40
2023-04-16T04:55:43.850Z,19.66
2023-04-16T04:58:11.468Z,19.62
2023-04-16T05:00:43.887Z,17.96
2023-04-16T05:03:12.258Z,18.92
2023-04-16T05:05:40.031Z,19.84
2023-04-16T05:08:07.721Z,18.67
2023-04-16T05:10:35.359Z,19.81
2023-04-16T05:13:03.004Z,19.80
2023-04-16T05:15:30.665Z,19.13
2023-04-16T05:17:59.675Z,19.66
2023-04-16T05:20:27.328Z,19.45
2023-04-16T05:22:55.376Z,19.23
2023-04-16T05:25:23.302Z,19.18
2023-04-16T05:27:50.905Z,19.88
2023-04-16T05:30:19.061Z,19.24
2023-04-16T05:32:46.730Z,19.62
2023-04-16T05:35:17.546Z,20.49
2023-04-16T05:37:45.563Z,18.14
2023-04-16T05:40:14.463Z,20.16
2023-04-16T05:42:42.100Z,18.59
2023-04-16T05:45:10.595Z,20.04
2023-04-16T05:47:38.289Z,18.00
2023-04-16T05:50:06.318Z,18.76
2023-04-16T05:52:35.306Z,19.60
2023-04-16T05:55:03.352Z,19.00
2023-04-16T05:57:31.046Z,19.31
2023-04-16T05:59:58.631Z,19.72
2023-04-16T06:02:26.431Z,18.87
2023-04-16T06:04:54.127Z,18.81
2023-04-16T06:07:21.770Z,19.41
2023-04-16T06:09:50.769Z,19.29
2023-04-16T06:12:18.406Z,18.36
2023-04-16T06:14:46.211Z,19.05
2023-04-16T06:17:13.814Z,17.60
2023-04-16T06:19:41.414Z,19.41
2023-04-16T06:22:09.004Z,20.09
2023-04-16T06:24:36.644Z,19.73
2023-04-16T06:27:05.640Z,18.53
2023-04-16T06:29:40.352Z,18.21
2023-04-16T06:32:09.442Z,20.01
2023-04-16T06:34:37.042Z,19.78
2023-04-16T06:37:04.626Z,17.99
2023-04-16T06:39:32.196Z,18.95
2023-04-16T06:41:59.851Z,18.32
2023-04-16T06:44:28.935Z,19.03
2023-04-16T06:46:56.563Z,20.05
2023-04-16T06:49:24.179Z,18.86
2023-04-16T06:51:51.802Z,18.99
2023-04-16T06:54:19.839Z,19.16
2023-04-16T06:56:47.467Z,18.79
2023-04-16T06:59:15.131Z,19.52
2023-04-16T07:01:44.250Z,19.98
2023-04-16T07:04:12.965Z,19.25
2023-04-16T07:06:40.718Z,18.30
2023-04-16T07:09:08.635Z,19.26
2023-04-16T07:11:36.383Z,19.64
2023-04-16T07:14:04.006Z,20.23
2023-04-16T07:16:31.658Z,20.10
2023-04-16T07:19:00.644Z,19.78
2023-04-16T07:21:28.305Z,18.60
2023-04-16T07:23:55.975Z,18.51
2023-04-16T07:26:23.613Z,19.07
2023-04-16T07:28:51.199Z,18.62
2023-04-16T07:31:18.911Z,19.69
2023-04-16T07:33:46.606Z,20.34
2023-04-16T07:36:15.619Z,19.67
2023-04-16T07:38:43.214Z,19.76
2023-04-16T07:41:10.806Z,19.27
2023-04-16T07:43:38.508Z,19.81
2023-04-16T07:46:06.313Z,19.62
2023-04-16T07:48:34.004Z,19.56
2023-04-16T07:51:01.664Z,19.02
2023-04-16T07:53:30.612Z,19.29
2023-04-16T07:55:58.230Z,19.52
2023-04-16T07:58:25.885Z,20.76
2023-04-16T08:00:53.502Z,20.86
2023-04-16T08:03:21.303Z,20.12
2023-04-16T08:05:49.078Z,19.86
2023-04-16T08:08:16.725Z,19.21
2023-04-16T08:10:45.853Z,19.76
2023-04-16T08:13:13.538Z,19.04
2023-04-16T08:15:41.478Z,19.63
2023-04-16T08:18:12.836Z,19.98
2023-04-16T08:20:40.530Z,18.93
2023-04-16T08:23:08.159Z,19.00
2023-04-16T08:25:36.466Z,18.55
2023-04-16T08:28:05.717Z,18.94
2023-04-16T08:30:33.323Z,18.43
2023-04-16T08:33:01.201Z,19.37
2023-04-16T08:35:28.904Z,19.75
2023-04-16T08:37:57.867Z,20.19
2023-04-16T08:40:26.111Z,21.44
2023-04-16T08:42:55.679Z,21.02
2023-04-16T08:45:24.606Z,19.14
2023-04-16T08:47:52.587Z,19.52
2023-04-16T08:50:23.931Z,20.22
2023-04-16T08:52:52.423Z,19.84
2023-04-16T08:55:20.887Z,18.06
2023-04-16T08:57:49.304Z,19.15
2023-04-16T09:00:17.120Z,19.78
2023-04-16T09:02:46.377Z,18.42
2023-04-16T09:05:17.024Z,20.40
2023-04-16T09:07:45.365Z,19.68
2023-04-16T09:10:13.092Z,20.34
2023-04-16T09:12:42.842Z,19.37
2023-04-16T09:15:11.255Z,19.06
2023-04-16T09:17:38.984Z,18.71
2023-04-16T09:20:10.793Z,18.29
2023-04-16T09:22:38.707Z,18.80
2023-04-16T09:25:06.933Z,18.46
2023-04-16T09:27:34.623Z,18.95
2023-04-16T09:30:02.245Z,18.08
2023-04-16T09:32:29.921Z,19.21
2023-04-16T09:34:58.303Z,18.56
2023-04-16T09:37:29.499Z,19.49
2023-04-16T09:39:57.934Z,19.21
2023-04-16T09:42:27.356Z,19.85
2023-04-16T09:44:56.226Z,20.00
2023-04-16T09:47:25.634Z,19.82
2023-04-16T09:49:53.346Z,20.56
2023-04-16T09:52:21.661Z,21.44
2023-04-16T09:54:51.156Z,21.02
2023-04-16T09:57:22.444Z,19.78
2023-04-16T09:59:50.137Z,20.80
2023-04-16T10:02:17.800Z,20.22
2023-04-16T10:04:48.932Z,19.06
2023-04-16T10:07:16.792Z,19.97
2023-04-16T10:09:44.393Z,20.64
2023-04-16T10:12:13.763Z,20.68
2023-04-16T10:14:43.064Z,20.01
2023-04-16T10:17:10.982Z,20.08
2023-04-16T10:19:38.795Z,18.89
2023-04-16T10:22:06.575Z,19.17
2023-04-16T10:24:34.617Z,20.16
2023-04-16T10:27:02.551Z,21.33
2023-04-16T10:29:31.836Z,19.85
2023-04-16T10:31:59.577Z,20.57
2023-04-16T10:34:27.328Z,21.02
2023-04-16T10:36:55.525Z,19.48
2023-04-16T10:39:23.674Z,19.99
2023-04-16T10:41:51.469Z,19.52
2023-04-16T10:44:19.879Z,20.42
2023-04-16T10:46:50.505Z,20.11
2023-04-16T10:49:19.193Z,20.54
2023-04-16T10:51:53.771Z,19.44
2023-04-16T10:54:22.324Z,19.23
2023-04-16T10:56:50.668Z,19.12
2023-04-16T10:59:19.580Z,19.80
2023-04-16T11:01:47.608Z,21.03
2023-04-16T11:04:35.527Z,19.57
2023-04-16T11:07:04.097Z,19.97
2023-04-16T11:09:47.964Z,19.40
2023-04-16T11:12:16.300Z,20.53
2023-04-16T11:14:44.032Z,18.81
2023-04-16T11:17:11.701Z,19.71
2023-04-16T11:19:40.648Z,20.17
2023-04-16T11:22:08.248Z,20.16
2023-04-16T11:24:36.129Z,21.69
2023-04-16T11:27:05.157Z,22.45
2023-04-16T11:29:32.859Z,21.82
2023-04-16T11:32:00.481Z,21.77
2023-04-16T11:34:28.099Z,21.60
2023-04-16T11:36:57.216Z,22.49
2023-04-16T11:39:24.842Z,22.30
2023-04-16T11:41:52.750Z,19.96
2023-04-16T11:44:21.093Z,21.80
2023-04-16T11:46:48.999Z,22.70
2023-04-16T11:49:17.295Z,22.03
2023-04-16T11:51:45.274Z,22.05
2023-04-16T11:54:20.998Z,22.53
2023-04-16T11:56:49.301Z,22.77
2023-04-16T11:59:17.394Z,23.22
2023-04-16T12:01:47.185Z,22.11
2023-04-16T12:04:15.078Z,21.32
2023-04-16T12:06:42.851Z,20.83
2023-04-16T12:09:27.516Z,20.03
2023-04-16T12:11:55.171Z,19.83
2023-04-16T12:14:23.594Z,22.03
2023-04-16T12:16:51.473Z,18.89
2023-04-16T12:19:19.403Z,21.56
2023-04-16T12:21:47.423Z,21.86
2023-04-16T12:24:15.690Z,21.01
2023-04-16T12:26:46.477Z,20.33
2023-04-16T12:29:17.645Z,21.35
2023-04-16T12:31:45.495Z,20.78
2023-04-16T12:34:15.103Z,20.48
2023-04-16T12:36:42.834Z,21.03
2023-04-16T12:39:11.161Z,22.35
2023-04-16T12:41:39.368Z,21.16
2023-04-16T12:44:11.811Z,20.62
2023-04-16T12:46:40.383Z,21.04
2023-04-16T12:49:08.353Z,19.42
2023-04-16T12:51:36.301Z,19.82
2023-04-16T12:54:04.666Z,19.69
2023-04-16T12:56:32.375Z,19.86
2023-04-16T12:58:59.991Z,20.14
2023-04-16T13:01:28.969Z,18.71
2023-04-16T13:03:56.861Z,18.43
2023-04-16T13:06:24.735Z,19.00
2023-04-16T13:08:52.411Z,20.71
2023-04-16T13:11:20.227Z,19.80
2023-04-16T13:13:47.842Z,19.72
2023-04-16T13:16:15.520Z,19.03
2023-04-16T13:18:44.644Z,18.18
2023-04-16T13:21:12.354Z,18.03
2023-04-16T13:23:40.088Z,18.54
2023-04-16T13:26:07.834Z,19.19
2023-04-16T13:28:35.497Z,20.74
2023-04-16T13:31:05.712Z,19.97
2023-04-16T13:33:33.724Z,18.83
2023-04-16T13:36:02.714Z,20.44
2023-04-16T13:38:30.403Z,17.82
2023-04-16T13:40:58.093Z,18.05
2023-04-16T13:43:25.685Z,19.42
2023-04-16T13:45:53.305Z,18.47
2023-04-16T13:48:21.003Z,19.29
2023-04-16T13:50:48.687Z,19.78
2023-04-16T13:53:17.633Z,20.07
2023-04-16T13:55:45.286Z,20.98
2023-04-16T13:58:12.930Z,21.65
2023-04-16T14:00:40.637Z,22.96
2023-04-16T14:03:08.459Z,22.82
2023-04-16T14:05:36.311Z,22.22
2023-04-16T14:08:03.890Z,22.67
2023-04-16T14:10:33.039Z,22.65
2023-04-16T14:13:00.639Z,21.23
2023-04-16T14:15:29.945Z,21.29
2023-04-16T14:17:57.604Z,20.86
2023-04-16T14:20:25.360Z,20.84
2023-04-16T14:22:53.001Z,21.32
2023-04-16T14:25:20.675Z,21.66
2023-04-16T14:27:49.739Z,22.72
2023-04-16T14:30:17.622Z,22.17
2023-04-16T14:32:45.299Z,22.31
2023-04-16T14:35:13.036Z,22.34
2023-04-16T14:37:41.282Z,23.17
2023-04-16T14:40:09.879Z,21.64
2023-04-16T14:42:37.824Z,22.30
2023-04-16T14:45:07.721Z,22.24
2023-04-16T14:47:35.648Z,22.09
2023-04-16T14:50:03.530Z,22.05
2023-04-16T14:52:31.928Z,21.99
2023-04-16T14:54:59.744Z,22.83
2023-04-16T14:57:27.439Z,22.34
2023-04-16T14:59:55.094Z,21.71
2023-04-16T15:02:24.275Z,20.98
2023-04-16T15:04:52.022Z,21.09
2023-04-16T15:07:19.796Z,20.46
2023-04-16T15:09:47.601Z,19.23
2023-04-16T15:12:16.228Z,18.19
2023-04-16T15:14:45.126Z,18.55
2023-04-16T15:17:12.784Z,19.23
2023-04-16T15:19:41.751Z,19.46
2023-04-16T15:22:09.388Z,19.09
2023-04-16T15:24:37.000Z,17.50
2023-04-16T15:27:07.157Z,17.94
2023-04-16T15:29:35.365Z,19.38
2023-04-16T15:32:03.008Z,18.15
2023-04-16T15:34:30.664Z,19.36
2023-04-16T15:36:59.672Z,19.54
2023-04-16T15:39:27.248Z,18.88
2023-04-16T15:42:01.528Z,19.52
2023-04-16T15:44:30.975Z,21.26
2023-04-16T15:46:58.646Z,20.69
2023-04-16T15:49:26.309Z,21.38
2023-04-16T15:51:53.939Z,20.51
2023-04-16T15:54:22.926Z,20.30
2023-04-16T15:56:50.789Z,21.01
2023-04-16T15:59:18.457Z,21.91
2023-04-16T16:01:46.351Z,21.87
2023-04-16T16:04:14.321Z,20.06
2023-04-16T16:06:42.172Z,21.57
2023-04-16T16:09:10.272Z,20.72
2023-04-16T16:11:39.667Z,21.15
2023-04-16T16:14:07.349Z,21.51
2023-04-16T16:16:35.638Z,19.43
2023-04-16T16:19:03.692Z,19.76
2023-04-16T16:21:34.218Z,19.78
2023-04-16T16:24:01.834Z,18.57
2023-04-16T16:26:29.513Z,19.62
2023-04-16T16:28:58.481Z,20.38
2023-04-16T16:31:26.202Z,20.14
2023-04-16T16:33:53.838Z,19.04
2023-04-16T16:36:21.490Z,20.30
2023-04-16T16:38:49.084Z,19.89
2023-04-16T16:41:16.722Z,19.46
2023-04-16T16:43:44.359Z,19.00
2023-04-16T16:46:13.438Z,19.86
2023-04-16T16:48:41.206Z,18.62
2023-04-16T16:51:12.057Z,18.76
2023-04-16T16:53:39.711Z,19.38
2023-04-16T16:56:07.379Z,19.74
2023-04-16T16:58:35.140Z,19.60
2023-04-16T17:01:03.061Z,17.61
2023-04-16T17:03:32.174Z,17.41
2023-04-16T17:06:00.009Z,18.81
2023-04-16T17:08:28.890Z,19.25
2023-04-16T17:10:56.507Z,17.39
2023-04-16T17:13:25.198Z,19.18
2023-04-16T17:15:52.821Z,19.75
2023-04-16T17:18:20.455Z,19.41
2023-04-16T17:20:49.501Z,20.07
2023-04-16T17:23:17.200Z,19.69
2023-04-16T17:25:44.801Z,18.97
2023-04-16T17:28:12.408Z,17.88
2023-04-16T17:30:39.996Z,17.16
2023-04-16T17:33:07.732Z,15.94
2023-04-16T17:35:35.490Z,17.11
2023-04-16T17:38:04.461Z,17.64
2023-04-16T17:40:32.046Z,16.96
2023-04-16T17:42:59.676Z,16.87
2023-04-16T17:45:27.383Z,16.73
2023-04-16T17:47:55.062Z,17.88
2023-04-16T17:50:22.783Z,17.17
2023-04-16T17:52:50.739Z,17.35
2023-04-16T17:55:19.750Z,18.56
2023-04-16T17:57:47.341Z,16.15
2023-04-16T18:00:16.148Z,18.12
2023-04-16T18:02:44.094Z,18.59
2023-04-16T18:05:11.880Z,18.17
2023-04-16T18:07:39.499Z,19.28
2023-04-16T18:10:08.217Z,18.53
2023-04-16T18:12:37.459Z,17.30
2023-04-16T18:15:05.750Z,17.78
2023-04-16T18:17:33.514Z,18.01
2023-04-16T18:20:01.480Z,16.77
2023-04-16T18:22:29.316Z,17.52
2023-04-16T18:24:57.120Z,17.50
2023-04-16T18:27:24.740Z,18.09
2023-04-16T18:29:54.799Z,16.69
2023-04-16T18:32:23.018Z,17.97
2023-04-16T18:34:50.770Z,17.06
2023-04-16T18:37:18.392Z,18.13
2023-04-16T18:39:46.276Z,17.12
2023-04-16T18:42:14.224Z,16.55
2023-04-16T18:44:42.006Z,16.99
2023-04-16T18:47:11.096Z,18.00
2023-04-16T18:49:38.733Z,18.29
2023-04-16T18:52:06.706Z,18.14
2023-04-16T18:54:34.846Z,19.66
2023-04-16T18:57:02.665Z,18.92
2023-04-16T18:59:30.380Z,18.56
2023-04-16T19:01:58.038Z,17.82
2023-04-16T19:04:27.064Z,17.49
2023-04-16T19:06:54.666Z,15.85
2023-04-16T19:09:22.316Z,16.09
2023-04-16T19:11:50.624Z,16.61
2023-04-16T19:14:18.337Z,16.89
2023-04-16T19:16:46.330Z,18.14
2023-04-16T19:19:13.994Z,16.52
2023-04-16T19:21:42.989Z,17.56
2023-04-16T19:24:10.637Z,17.75
2023-04-16T19:26:38.301Z,16.01
2023-04-16T19:29:05.909Z,15.37
2023-04-16T19:31:34.740Z,16.90
2023-04-16T19:34:02.393Z,18.77
2023-04-16T19:36:30.047Z,16.02
2023-04-16T19:38:59.036Z,18.05
2023-04-16T19:41:26.610Z,17.01
2023-04-16T19:43:55.255Z,17.11
2023-04-16T19:46:22.940Z,18.00
2023-04-16T19:48:50.625Z,17.98
2023-04-16T19:51:18.221Z,18.82
2023-04-16T19:53:45.821Z,17.64
2023-04-16T19:56:15.878Z,18.23
2023-04-16T19:58:43.539Z,18.54
2023-04-16T20:01:11.392Z,18.92
2023-04-16T20:03:39.105Z,19.48
2023-04-16T20:06:07.796Z,18.47
2023-04-16T20:08:35.443Z,17.43
2023-04-16T20:11:03.034Z,17.26
2023-04-16T20:13:32.037Z,17.28
2023-04-16T20:16:01.236Z,17.10
2023-04-16T20:18:28.965Z,18.46
2023-04-16T20:20:56.590Z,16.69
2023-04-16T20:23:24.328Z,17.76
2023-04-16T20:25:52.406Z,18.36
2023-04-16T20:28:23.403Z,18.24
2023-04-16T20:30:52.425Z,18.45
2023-04-16T20:33:20.249Z,17.82
2023-04-16T20:35:49.053Z,17.99
2023-04-16T20:38:18.280Z,17.27
2023-04-16T20:41:00.528Z,17.48
2023-04-16T20:43:29.813Z,17.79
2023-04-16T20:45:59.075Z,17.16
2023-04-16T20:48:26.739Z,17.13
2023-04-16T20:50:58.818Z,17.20
2023-04-16T20:53:27.204Z,17.74
2023-04-16T20:55:55.273Z,17.01
2023-04-16T20:58:23.258Z,16.85
2023-04-16T21:00:51.695Z,16.77
2023-04-16T21:03:20.909Z,18.11
2023-04-16T21:05:49.878Z,16.53
2023-04-16T21:08:18.200Z,15.34
2023-04-16T21:10:46.175Z,16.66
2023-04-16T21:13:14.045Z,16.42
2023-04-16T21:15:42.800Z,16.67
2023-04-16T21:18:11.809Z,15.58
2023-04-16T21:20:41.096Z,16.35
2023-04-16T21:23:08.807Z,17.08
2023-04-16T21:25:36.749Z,17.63
2023-04-16T21:28:04.444Z,16.00
2023-04-16T21:30:32.106Z,17.46
2023-04-16T21:33:00.022Z,17.02
2023-04-16T21:35:27.786Z,15.77
2023-04-16T21:37:56.871Z,16.91
2023-04-16T21:40:24.810Z,17.42
2023-04-16T21:42:52.499Z,16.81
2023-04-16T21:45:20.142Z,16.99
2023-04-16T21:47:48.065Z,16.79
2023-04-16T21:50:15.974Z,17.83
2023-04-16T21:52:46.145Z,17.54
2023-04-16T21:55:15.373Z,17.54
2023-04-16T21:57:42.985Z,17.76
2023-04-16T22:00:14.145Z,18.35
2023-04-16T22:02:42.635Z,15.20
2023-04-16T22:05:11.215Z,17.17
2023-04-16T22:07:39.270Z,16.24
2023-04-16T22:10:08.647Z,16.76
2023-04-16T22:12:39.805Z,17.38
2023-04-16T22:15:09.198Z,17.91
2023-04-16T22:17:37.096Z,16.65
2023-04-16T22:20:08.565Z,16.87
2023-04-16T22:22:36.552Z,16.84
2023-04-16T22:25:04.338Z,16.55
2023-04-16T22:27:32.232Z,16.30
2023-04-16T22:30:01.678Z,16.30
2023-04-16T22:32:30.213Z,17.00
2023-04-16T22:34:58.145Z,16.78
2023-04-16T22:37:25.900Z,16.80
2023-04-16T22:39:53.624Z,15.06
2023-04-16T22:42:21.499Z,15.22
2023-04-16T22:44:49.333Z,17.25
2023-04-16T22:47:18.535Z,16.57
2023-04-16T22:49:47.395Z,17.26
2023-04-16T22:52:15.372Z,16.89
2023-04-16T22:54:43.200Z,17.70
2023-04-16T22:57:10.901Z,17.15
2023-04-16T22:59:38.620Z,16.26
2023-04-16T23:02:06.382Z,16.36
2023-04-16T23:04:35.571Z,16.20
2023-04-16T23:07:03.278Z,17.71
2023-04-16T23:09:31.002Z,16.77
2023-04-16T23:11:58.664Z,16.97
2023-04-16T23:14:26.600Z,16.88
2023-04-16T23:16:54.190Z,16.71
2023-04-16T23:19:21.804Z,15.57
2023-04-16T23:21:50.998Z,16.86
2023-04-16T23:24:18.767Z,17.54
2023-04-16T23:26:46.399Z,16.11
2023-04-16T23:29:14.058Z,16.37
2023-04-16T23:31:41.770Z,15.79
2023-04-16T23:34:09.430Z,15.53
2023-04-16T23:36:37.027Z,15.92
2023-04-16T23:39:06.059Z,16.18
2023-04-16T23:41:33.704Z,16.38
2023-04-16T23:44:01.341Z,16.51
2023-04-16T23:46:29.031Z,17.55
2023-04-16T23:48:56.735Z,17.98
2023-04-16T23:51:24.355Z,15.29
2023-04-16T23:53:51.956Z,15.81
2023-04-16T23:56:21.121Z,15.34
2023-04-16T23:58:48.752Z,16.39
